sensor_id;sensor_type;location;lat;lon;timestamp;P1;durP1;ratioP1;P2;durP2;ratioP2
11008;SDS011;5557;51.670;7.788;2024-03-25T00:02:04;11.50;;;4.50;;
11008;SDS011;5557;51.670;7.788;2024-03-25T00:04:30;34.63;;;5.63;;
11008;SDS011;5557;51.670;7.788;2024-03-25T00:06:56;18.40;;;6.07;;
11008;SDS011;5557;51.670;7.788;2024-03-25T00:09:23;10.43;;;4.70;;
11008;SDS011;5557;51.670;7.788;2024-03-25T00:11:50;22.37;;;6.27;;
11008;SDS011;5557;51.670;7.788;2024-03-25T00:14:22;15.87;;;5.53;;
11008;SDS011;5557;51.670;7.788;2024-03-25T00:16:49;18.57;;;5.43;;
11008;SDS011;5557;51.670;7.788;2024-03-25T00:19:16;13.60;;;5.23;;
11008;SDS011;5557;51.670;7.788;2024-03-25T00:21:42;14.87;;;6.60;;
11008;SDS011;5557;51.670;7.788;2024-03-25T00:24:08;29.27;;;8.03;;
11008;SDS011;5557;51.670;7.788;2024-03-25T00:26:34;17.60;;;6.10;;
11008;SDS011;5557;51.670;7.788;2024-03-25T00:29:01;16.93;;;6.00;;
11008;SDS011;5557;51.670;7.788;2024-03-25T00:31:27;17.13;;;7.10;;
11008;SDS011;5557;51.670;7.788;2024-03-25T00:33:53;23.83;;;6.93;;
11008;SDS011;5557;51.670;7.788;2024-03-25T00:36:19;25.00;;;6.20;;
11008;SDS011;5557;51.670;7.788;2024-03-25T00:38:44;24.00;;;6.63;;
11008;SDS011;5557;51.670;7.788;2024-03-25T00:41:10;18.73;;;5.80;;
11008;SDS011;5557;51.670;7.788;2024-03-25T00:43:37;22.13;;;7.30;;
11008;SDS011;5557;51.670;7.788;2024-03-25T00:46:03;19.40;;;6.07;;
11008;SDS011;5557;51.670;7.788;2024-03-25T00:48:29;19.20;;;6.47;;
11008;SDS011;5557;51.670;7.788;2024-03-25T00:50:55;26.40;;;6.47;;
11008;SDS011;5557;51.670;7.788;2024-03-25T00:53:21;18.70;;;6.40;;
11008;SDS011;5557;51.670;7.788;2024-03-25T00:55:47;22.43;;;6.47;;
11008;SDS011;5557;51.670;7.788;2024-03-25T00:58:13;24.13;;;5.97;;
11008;SDS011;5557;51.670;7.788;2024-03-25T01:00:40;20.00;;;5.57;;
11008;SDS011;5557;51.670;7.788;2024-03-25T01:03:06;17.70;;;4.23;;
11008;SDS011;5557;51.670;7.788;2024-03-25T01:05:32;22.87;;;5.83;;
11008;SDS011;5557;51.670;7.788;2024-03-25T01:07:58;17.30;;;6.27;;
11008;SDS011;5557;51.670;7.788;2024-03-25T01:10:24;30.90;;;5.57;;
11008;SDS011;5557;51.670;7.788;2024-03-25T01:12:50;31.30;;;6.47;;
11008;SDS011;5557;51.670;7.788;2024-03-25T01:15:15;18.10;;;5.90;;
11008;SDS011;5557;51.670;7.788;2024-03-25T01:17:42;18.60;;;4.40;;
11008;SDS011;5557;51.670;7.788;2024-03-25T01:20:08;17.37;;;5.87;;
11008;SDS011;5557;51.670;7.788;2024-03-25T01:22:35;16.73;;;6.87;;
11008;SDS011;5557;51.670;7.788;2024-03-25T01:25:01;15.20;;;5.70;;
11008;SDS011;5557;51.670;7.788;2024-03-25T01:27:27;16.43;;;6.43;;
11008;SDS011;5557;51.670;7.788;2024-03-25T01:29:53;19.47;;;6.67;;
11008;SDS011;5557;51.670;7.788;2024-03-25T01:32:19;16.70;;;6.77;;
11008;SDS011;5557;51.670;7.788;2024-03-25T01:34:44;19.50;;;7.60;;
11008;SDS011;5557;51.670;7.788;2024-03-25T01:37:10;22.93;;;7.80;;
11008;SDS011;5557;51.670;7.788;2024-03-25T01:39:37;24.83;;;7.53;;
11008;SDS011;5557;51.670;7.788;2024-03-25T01:42:04;20.43;;;6.47;;
11008;SDS011;5557;51.670;7.788;2024-03-25T01:44:30;21.63;;;6.53;;
11008;SDS011;5557;51.670;7.788;2024-03-25T01:46:56;14.87;;;6.17;;
11008;SDS011;5557;51.670;7.788;2024-03-25T01:49:22;27.87;;;7.30;;
11008;SDS011;5557;51.670;7.788;2024-03-25T01:51:48;20.10;;;6.43;;
11008;SDS011;5557;51.670;7.788;2024-03-25T01:54:14;20.20;;;6.73;;
11008;SDS011;5557;51.670;7.788;2024-03-25T01:56:42;19.60;;;6.40;;
11008;SDS011;5557;51.670;7.788;2024-03-25T01:59:09;12.73;;;5.30;;
11008;SDS011;5557;51.670;7.788;2024-03-25T02:01:36;16.93;;;6.83;;
11008;SDS011;5557;51.670;7.788;2024-03-25T02:04:02;14.50;;;6.20;;
11008;SDS011;5557;51.670;7.788;2024-03-25T02:06:28;20.83;;;7.90;;
11008;SDS011;5557;51.670;7.788;2024-03-25T02:08:57;19.83;;;6.30;;
11008;SDS011;5557;51.670;7.788;2024-03-25T02:11:24;18.40;;;5.97;;
11008;SDS011;5557;51.670;7.788;2024-03-25T02:13:51;19.90;;;5.77;;
11008;SDS011;5557;51.670;7.788;2024-03-25T02:16:17;17.33;;;6.47;;
11008;SDS011;5557;51.670;7.788;2024-03-25T02:18:43;17.40;;;5.83;;
11008;SDS011;5557;51.670;7.788;2024-03-25T02:21:09;15.67;;;6.30;;
11008;SDS011;5557;51.670;7.788;2024-03-25T02:23:36;17.37;;;5.90;;
11008;SDS011;5557;51.670;7.788;2024-03-25T02:26:04;15.00;;;6.37;;
11008;SDS011;5557;51.670;7.788;2024-03-25T02:28:30;12.00;;;6.30;;
11008;SDS011;5557;51.670;7.788;2024-03-25T02:30:56;18.73;;;6.40;;
11008;SDS011;5557;51.670;7.788;2024-03-25T02:33:22;18.97;;;6.50;;
11008;SDS011;5557;51.670;7.788;2024-03-25T02:35:48;28.90;;;5.67;;
11008;SDS011;5557;51.670;7.788;2024-03-25T02:38:14;17.17;;;5.60;;
11008;SDS011;5557;51.670;7.788;2024-03-25T02:40:43;20.37;;;6.80;;
11008;SDS011;5557;51.670;7.788;2024-03-25T02:43:09;15.57;;;6.53;;
11008;SDS011;5557;51.670;7.788;2024-03-25T02:45:36;22.17;;;5.87;;
11008;SDS011;5557;51.670;7.788;2024-03-25T02:48:02;18.93;;;5.80;;
11008;SDS011;5557;51.670;7.788;2024-03-25T02:50:29;20.80;;;5.60;;
11008;SDS011;5557;51.670;7.788;2024-03-25T02:52:54;16.37;;;6.23;;
11008;SDS011;5557;51.670;7.788;2024-03-25T02:55:20;15.10;;;5.77;;
11008;SDS011;5557;51.670;7.788;2024-03-25T02:57:46;15.73;;;5.40;;
11008;SDS011;5557;51.670;7.788;2024-03-25T03:00:12;24.53;;;6.33;;
11008;SDS011;5557;51.670;7.788;2024-03-25T03:02:39;15.77;;;5.00;;
11008;SDS011;5557;51.670;7.788;2024-03-25T03:05:05;18.63;;;5.27;;
11008;SDS011;5557;51.670;7.788;2024-03-25T03:07:31;20.70;;;5.67;;
11008;SDS011;5557;51.670;7.788;2024-03-25T03:09:57;14.23;;;6.03;;
11008;SDS011;5557;51.670;7.788;2024-03-25T03:12:23;19.83;;;5.40;;
11008;SDS011;5557;51.670;7.788;2024-03-25T03:14:49;19.23;;;5.40;;
11008;SDS011;5557;51.670;7.788;2024-03-25T03:17:15;15.33;;;5.40;;
11008;SDS011;5557;51.670;7.788;2024-03-25T03:19:41;18.10;;;6.60;;
11008;SDS011;5557;51.670;7.788;2024-03-25T03:22:07;11.03;;;5.73;;
11008;SDS011;5557;51.670;7.788;2024-03-25T03:24:33;18.87;;;5.47;;
11008;SDS011;5557;51.670;7.788;2024-03-25T03:26:59;20.40;;;8.20;;
11008;SDS011;5557;51.670;7.788;2024-03-25T03:29:25;23.90;;;6.33;;
11008;SDS011;5557;51.670;7.788;2024-03-25T03:31:51;12.87;;;4.70;;
11008;SDS011;5557;51.670;7.788;2024-03-25T03:34:17;19.27;;;5.97;;
11008;SDS011;5557;51.670;7.788;2024-03-25T03:36:43;14.50;;;5.00;;
11008;SDS011;5557;51.670;7.788;2024-03-25T03:39:09;15.40;;;5.10;;
11008;SDS011;5557;51.670;7.788;2024-03-25T03:41:35;21.20;;;5.37;;
11008;SDS011;5557;51.670;7.788;2024-03-25T03:44:02;15.63;;;4.70;;
11008;SDS011;5557;51.670;7.788;2024-03-25T03:46:30;14.13;;;4.50;;
11008;SDS011;5557;51.670;7.788;2024-03-25T03:48:56;20.40;;;7.50;;
11008;SDS011;5557;51.670;7.788;2024-03-25T03:51:23;27.07;;;9.70;;
11008;SDS011;5557;51.670;7.788;2024-03-25T03:53:49;33.10;;;11.80;;
11008;SDS011;5557;51.670;7.788;2024-03-25T03:56:15;31.87;;;12.20;;
11008;SDS011;5557;51.670;7.788;2024-03-25T03:58:41;32.60;;;13.60;;
11008;SDS011;5557;51.670;7.788;2024-03-25T04:01:14;26.43;;;12.47;;
11008;SDS011;5557;51.670;7.788;2024-03-25T04:03:42;29.23;;;12.07;;
11008;SDS011;5557;51.670;7.788;2024-03-25T04:06:11;28.33;;;13.33;;
11008;SDS011;5557;51.670;7.788;2024-03-25T04:08:41;40.57;;;13.43;;
11008;SDS011;5557;51.670;7.788;2024-03-25T04:11:08;26.60;;;14.10;;
11008;SDS011;5557;51.670;7.788;2024-03-25T04:13:35;24.47;;;13.33;;
11008;SDS011;5557;51.670;7.788;2024-03-25T04:16:02;35.77;;;15.57;;
11008;SDS011;5557;51.670;7.788;2024-03-25T04:18:30;30.53;;;15.60;;
11008;SDS011;5557;51.670;7.788;2024-03-25T04:20:58;32.87;;;16.10;;
11008;SDS011;5557;51.670;7.788;2024-03-25T04:23:24;39.53;;;15.97;;
11008;SDS011;5557;51.670;7.788;2024-03-25T04:25:51;38.60;;;16.80;;
11008;SDS011;5557;51.670;7.788;2024-03-25T04:28:17;34.53;;;15.90;;
11008;SDS011;5557;51.670;7.788;2024-03-25T04:30:50;33.33;;;16.63;;
11008;SDS011;5557;51.670;7.788;2024-03-25T04:33:17;38.27;;;17.67;;
11008;SDS011;5557;51.670;7.788;2024-03-25T04:35:44;41.23;;;19.67;;
11008;SDS011;5557;51.670;7.788;2024-03-25T04:38:11;35.17;;;18.57;;
11008;SDS011;5557;51.670;7.788;2024-03-25T04:40:38;53.77;;;20.47;;
11008;SDS011;5557;51.670;7.788;2024-03-25T04:43:05;49.80;;;20.00;;
11008;SDS011;5557;51.670;7.788;2024-03-25T04:45:31;43.03;;;19.50;;
11008;SDS011;5557;51.670;7.788;2024-03-25T04:47:57;40.70;;;18.60;;
11008;SDS011;5557;51.670;7.788;2024-03-25T04:50:23;42.27;;;17.93;;
11008;SDS011;5557;51.670;7.788;2024-03-25T04:52:50;41.80;;;16.87;;
11008;SDS011;5557;51.670;7.788;2024-03-25T04:55:17;43.60;;;16.17;;
11008;SDS011;5557;51.670;7.788;2024-03-25T04:57:43;32.47;;;15.67;;
11008;SDS011;5557;51.670;7.788;2024-03-25T05:00:09;34.90;;;15.87;;
11008;SDS011;5557;51.670;7.788;2024-03-25T05:02:37;39.60;;;15.40;;
11008;SDS011;5557;51.670;7.788;2024-03-25T05:05:03;41.87;;;13.90;;
11008;SDS011;5557;51.670;7.788;2024-03-25T05:07:31;30.33;;;12.67;;
11008;SDS011;5557;51.670;7.788;2024-03-25T05:09:57;39.30;;;12.43;;
11008;SDS011;5557;51.670;7.788;2024-03-25T05:12:23;31.40;;;12.33;;
11008;SDS011;5557;51.670;7.788;2024-03-25T05:14:52;31.93;;;13.03;;
11008;SDS011;5557;51.670;7.788;2024-03-25T05:17:18;35.80;;;14.17;;
11008;SDS011;5557;51.670;7.788;2024-03-25T05:19:44;40.73;;;15.70;;
11008;SDS011;5557;51.670;7.788;2024-03-25T05:22:10;52.63;;;16.80;;
11008;SDS011;5557;51.670;7.788;2024-03-25T05:24:36;41.63;;;17.27;;
11008;SDS011;5557;51.670;7.788;2024-03-25T05:27:02;45.87;;;17.10;;
11008;SDS011;5557;51.670;7.788;2024-03-25T05:29:28;38.47;;;17.70;;
11008;SDS011;5557;51.670;7.788;2024-03-25T05:31:58;49.73;;;20.13;;
11008;SDS011;5557;51.670;7.788;2024-03-25T05:34:27;47.97;;;22.73;;
11008;SDS011;5557;51.670;7.788;2024-03-25T05:36:54;46.93;;;22.20;;
11008;SDS011;5557;51.670;7.788;2024-03-25T05:39:20;51.17;;;22.40;;
11008;SDS011;5557;51.670;7.788;2024-03-25T05:41:47;53.40;;;22.90;;
11008;SDS011;5557;51.670;7.788;2024-03-25T05:44:13;56.87;;;22.70;;
11008;SDS011;5557;51.670;7.788;2024-03-25T05:46:39;44.37;;;24.33;;
11008;SDS011;5557;51.670;7.788;2024-03-25T05:49:05;52.70;;;23.10;;
11008;SDS011;5557;51.670;7.788;2024-03-25T05:51:32;46.73;;;23.97;;
11008;SDS011;5557;51.670;7.788;2024-03-25T05:53:58;46.60;;;23.27;;
11008;SDS011;5557;51.670;7.788;2024-03-25T05:56:24;50.53;;;23.90;;
11008;SDS011;5557;51.670;7.788;2024-03-25T05:58:59;53.83;;;22.57;;
11008;SDS011;5557;51.670;7.788;2024-03-25T06:01:25;48.00;;;22.47;;
11008;SDS011;5557;51.670;7.788;2024-03-25T06:03:51;39.10;;;20.87;;
11008;SDS011;5557;51.670;7.788;2024-03-25T06:06:18;50.60;;;19.87;;
11008;SDS011;5557;51.670;7.788;2024-03-25T06:08:44;50.87;;;19.87;;
11008;SDS011;5557;51.670;7.788;2024-03-25T06:11:11;49.90;;;20.50;;
11008;SDS011;5557;51.670;7.788;2024-03-25T06:13:36;37.00;;;16.90;;
11008;SDS011;5557;51.670;7.788;2024-03-25T06:16:03;35.07;;;16.93;;
11008;SDS011;5557;51.670;7.788;2024-03-25T06:18:29;41.03;;;16.40;;
11008;SDS011;5557;51.670;7.788;2024-03-25T06:20:55;42.23;;;15.93;;
11008;SDS011;5557;51.670;7.788;2024-03-25T06:23:21;47.90;;;16.70;;
11008;SDS011;5557;51.670;7.788;2024-03-25T06:25:52;36.30;;;15.37;;
11008;SDS011;5557;51.670;7.788;2024-03-25T06:28:19;38.73;;;14.80;;
11008;SDS011;5557;51.670;7.788;2024-03-25T06:30:46;44.90;;;14.27;;
11008;SDS011;5557;51.670;7.788;2024-03-25T06:33:31;34.50;;;13.80;;
11008;SDS011;5557;51.670;7.788;2024-03-25T06:36:16;40.47;;;14.03;;
11008;SDS011;5557;51.670;7.788;2024-03-25T06:38:42;37.37;;;13.77;;
11008;SDS011;5557;51.670;7.788;2024-03-25T06:41:09;41.90;;;13.40;;
11008;SDS011;5557;51.670;7.788;2024-03-25T06:43:35;35.53;;;13.63;;
11008;SDS011;5557;51.670;7.788;2024-03-25T06:46:03;26.43;;;14.10;;
11008;SDS011;5557;51.670;7.788;2024-03-25T06:48:30;33.90;;;13.77;;
11008;SDS011;5557;51.670;7.788;2024-03-25T06:50:57;31.37;;;13.63;;
11008;SDS011;5557;51.670;7.788;2024-03-25T06:53:24;26.73;;;12.90;;
11008;SDS011;5557;51.670;7.788;2024-03-25T06:55:57;35.70;;;12.57;;
11008;SDS011;5557;51.670;7.788;2024-03-25T06:58:24;33.57;;;12.50;;
11008;SDS011;5557;51.670;7.788;2024-03-25T07:00:51;33.93;;;12.30;;
11008;SDS011;5557;51.670;7.788;2024-03-25T07:03:18;31.57;;;14.70;;
11008;SDS011;5557;51.670;7.788;2024-03-25T07:05:45;52.33;;;21.23;;
11008;SDS011;5557;51.670;7.788;2024-03-25T07:08:12;32.57;;;15.27;;
11008;SDS011;5557;51.670;7.788;2024-03-25T07:10:41;38.13;;;15.10;;
11008;SDS011;5557;51.670;7.788;2024-03-25T07:13:07;32.70;;;13.80;;
11008;SDS011;5557;51.670;7.788;2024-03-25T07:15:33;35.67;;;13.93;;
11008;SDS011;5557;51.670;7.788;2024-03-25T07:18:00;39.57;;;13.13;;
11008;SDS011;5557;51.670;7.788;2024-03-25T07:20:26;29.97;;;11.50;;
11008;SDS011;5557;51.670;7.788;2024-03-25T07:22:52;27.77;;;11.40;;
11008;SDS011;5557;51.670;7.788;2024-03-25T07:25:24;23.60;;;8.63;;
11008;SDS011;5557;51.670;7.788;2024-03-25T07:27:50;26.60;;;11.40;;
11008;SDS011;5557;51.670;7.788;2024-03-25T07:30:17;28.50;;;11.00;;
11008;SDS011;5557;51.670;7.788;2024-03-25T07:32:44;29.03;;;11.00;;
11008;SDS011;5557;51.670;7.788;2024-03-25T07:35:13;25.80;;;9.30;;
11008;SDS011;5557;51.670;7.788;2024-03-25T07:37:42;28.37;;;9.63;;
11008;SDS011;5557;51.670;7.788;2024-03-25T07:40:11;32.63;;;11.57;;
11008;SDS011;5557;51.670;7.788;2024-03-25T07:42:38;21.40;;;8.43;;
11008;SDS011;5557;51.670;7.788;2024-03-25T07:45:04;27.27;;;9.80;;
11008;SDS011;5557;51.670;7.788;2024-03-25T07:47:34;30.70;;;9.87;;
11008;SDS011;5557;51.670;7.788;2024-03-25T07:50:00;25.27;;;9.37;;
11008;SDS011;5557;51.670;7.788;2024-03-25T07:52:27;18.10;;;9.23;;
11008;SDS011;5557;51.670;7.788;2024-03-25T07:54:56;33.30;;;10.73;;
11008;SDS011;5557;51.670;7.788;2024-03-25T07:57:22;21.77;;;8.90;;
11008;SDS011;5557;51.670;7.788;2024-03-25T07:59:48;30.47;;;8.70;;
11008;SDS011;5557;51.670;7.788;2024-03-25T08:02:14;23.70;;;8.30;;
11008;SDS011;5557;51.670;7.788;2024-03-25T08:04:41;25.50;;;10.33;;
11008;SDS011;5557;51.670;7.788;2024-03-25T08:07:07;27.27;;;9.23;;
11008;SDS011;5557;51.670;7.788;2024-03-25T08:09:33;18.60;;;8.27;;
11008;SDS011;5557;51.670;7.788;2024-03-25T08:11:59;19.20;;;7.77;;
11008;SDS011;5557;51.670;7.788;2024-03-25T08:14:25;21.93;;;8.03;;
11008;SDS011;5557;51.670;7.788;2024-03-25T08:16:51;22.20;;;7.60;;
11008;SDS011;5557;51.670;7.788;2024-03-25T08:19:17;34.23;;;8.20;;
11008;SDS011;5557;51.670;7.788;2024-03-25T08:21:43;36.73;;;8.47;;
11008;SDS011;5557;51.670;7.788;2024-03-25T08:24:09;27.40;;;8.27;;
11008;SDS011;5557;51.670;7.788;2024-03-25T08:26:35;17.57;;;7.47;;
11008;SDS011;5557;51.670;7.788;2024-03-25T08:29:01;27.53;;;6.67;;
11008;SDS011;5557;51.670;7.788;2024-03-25T08:31:29;28.83;;;6.00;;
11008;SDS011;5557;51.670;7.788;2024-03-25T08:33:55;26.47;;;6.80;;
11008;SDS011;5557;51.670;7.788;2024-03-25T08:36:21;37.10;;;7.40;;
11008;SDS011;5557;51.670;7.788;2024-03-25T08:38:47;14.50;;;6.73;;
11008;SDS011;5557;51.670;7.788;2024-03-25T08:41:13;21.33;;;6.83;;
11008;SDS011;5557;51.670;7.788;2024-03-25T08:43:40;18.17;;;6.67;;
11008;SDS011;5557;51.670;7.788;2024-03-25T08:46:06;17.73;;;6.27;;
11008;SDS011;5557;51.670;7.788;2024-03-25T08:48:32;22.30;;;7.00;;
11008;SDS011;5557;51.670;7.788;2024-03-25T08:50:57;14.07;;;5.47;;
11008;SDS011;5557;51.670;7.788;2024-03-25T08:53:23;15.97;;;5.73;;
11008;SDS011;5557;51.670;7.788;2024-03-25T08:55:49;25.10;;;5.40;;
11008;SDS011;5557;51.670;7.788;2024-03-25T08:58:15;21.23;;;4.80;;
11008;SDS011;5557;51.670;7.788;2024-03-25T09:00:42;15.80;;;4.73;;
11008;SDS011;5557;51.670;7.788;2024-03-25T09:03:08;15.80;;;4.60;;
11008;SDS011;5557;51.670;7.788;2024-03-25T09:05:36;16.50;;;5.17;;
11008;SDS011;5557;51.670;7.788;2024-03-25T09:08:05;27.07;;;4.87;;
11008;SDS011;5557;51.670;7.788;2024-03-25T09:10:31;9.43;;;4.13;;
11008;SDS011;5557;51.670;7.788;2024-03-25T09:13:16;21.00;;;5.80;;
11008;SDS011;5557;51.670;7.788;2024-03-25T09:15:42;16.17;;;4.43;;
11008;SDS011;5557;51.670;7.788;2024-03-25T09:18:08;22.33;;;4.77;;
11008;SDS011;5557;51.670;7.788;2024-03-25T09:20:34;22.90;;;4.40;;
11008;SDS011;5557;51.670;7.788;2024-03-25T09:23:00;11.60;;;3.40;;
11008;SDS011;5557;51.670;7.788;2024-03-25T09:25:26;7.37;;;2.97;;
11008;SDS011;5557;51.670;7.788;2024-03-25T09:27:52;15.73;;;3.00;;
11008;SDS011;5557;51.670;7.788;2024-03-25T09:30:18;9.83;;;1.60;;
11008;SDS011;5557;51.670;7.788;2024-03-25T09:32:44;6.27;;;1.80;;
11008;SDS011;5557;51.670;7.788;2024-03-25T09:35:11;3.80;;;1.23;;
11008;SDS011;5557;51.670;7.788;2024-03-25T09:37:38;8.27;;;1.53;;
11008;SDS011;5557;51.670;7.788;2024-03-25T09:40:04;3.10;;;1.37;;
11008;SDS011;5557;51.670;7.788;2024-03-25T09:42:36;4.40;;;1.40;;
11008;SDS011;5557;51.670;7.788;2024-03-25T09:45:21;3.10;;;1.73;;
11008;SDS011;5557;51.670;7.788;2024-03-25T09:47:54;6.17;;;1.90;;
11008;SDS011;5557;51.670;7.788;2024-03-25T09:50:21;9.63;;;2.30;;
11008;SDS011;5557;51.670;7.788;2024-03-25T09:52:49;3.87;;;1.53;;
11008;SDS011;5557;51.670;7.788;2024-03-25T09:55:15;10.53;;;1.60;;
11008;SDS011;5557;51.670;7.788;2024-03-25T09:57:42;4.23;;;1.40;;
11008;SDS011;5557;51.670;7.788;2024-03-25T10:00:09;1.77;;;1.30;;
11008;SDS011;5557;51.670;7.788;2024-03-25T10:02:37;3.60;;;1.80;;
11008;SDS011;5557;51.670;7.788;2024-03-25T10:05:07;3.33;;;1.87;;
11008;SDS011;5557;51.670;7.788;2024-03-25T10:07:34;6.07;;;2.00;;
11008;SDS011;5557;51.670;7.788;2024-03-25T10:10:04;13.00;;;2.30;;
11008;SDS011;5557;51.670;7.788;2024-03-25T10:12:31;9.77;;;2.40;;
11008;SDS011;5557;51.670;7.788;2024-03-25T10:14:58;7.83;;;2.10;;
11008;SDS011;5557;51.670;7.788;2024-03-25T10:17:24;12.47;;;2.47;;
11008;SDS011;5557;51.670;7.788;2024-03-25T10:19:50;6.03;;;1.60;;
11008;SDS011;5557;51.670;7.788;2024-03-25T10:22:18;6.40;;;2.00;;
11008;SDS011;5557;51.670;7.788;2024-03-25T10:24:45;9.87;;;3.40;;
11008;SDS011;5557;51.670;7.788;2024-03-25T10:27:16;9.03;;;1.80;;
11008;SDS011;5557;51.670;7.788;2024-03-25T10:29:45;10.00;;;2.47;;
11008;SDS011;5557;51.670;7.788;2024-03-25T10:32:19;8.33;;;2.30;;
11008;SDS011;5557;51.670;7.788;2024-03-25T10:34:45;4.50;;;2.37;;
11008;SDS011;5557;51.670;7.788;2024-03-25T10:37:11;5.57;;;2.23;;
11008;SDS011;5557;51.670;7.788;2024-03-25T10:39:40;7.67;;;2.47;;
11008;SDS011;5557;51.670;7.788;2024-03-25T10:42:14;7.57;;;2.77;;
11008;SDS011;5557;51.670;7.788;2024-03-25T10:44:43;7.23;;;2.30;;
11008;SDS011;5557;51.670;7.788;2024-03-25T10:47:10;8.10;;;2.40;;
11008;SDS011;5557;51.670;7.788;2024-03-25T10:49:41;9.53;;;3.40;;
11008;SDS011;5557;51.670;7.788;2024-03-25T10:52:15;11.73;;;2.80;;
11008;SDS011;5557;51.670;7.788;2024-03-25T10:54:44;17.53;;;2.50;;
11008;SDS011;5557;51.670;7.788;2024-03-25T10:57:12;5.20;;;2.30;;
11008;SDS011;5557;51.670;7.788;2024-03-25T10:59:39;11.87;;;3.40;;
11008;SDS011;5557;51.670;7.788;2024-03-25T11:02:08;7.73;;;2.00;;
11008;SDS011;5557;51.670;7.788;2024-03-25T11:04:36;4.20;;;2.00;;
11008;SDS011;5557;51.670;7.788;2024-03-25T11:07:12;11.43;;;2.70;;
11008;SDS011;5557;51.670;7.788;2024-03-25T11:09:39;17.03;;;3.50;;
11008;SDS011;5557;51.670;7.788;2024-03-25T11:12:06;11.20;;;2.57;;
11008;SDS011;5557;51.670;7.788;2024-03-25T11:14:35;13.63;;;2.80;;
11008;SDS011;5557;51.670;7.788;2024-03-25T11:17:01;7.43;;;2.47;;
11008;SDS011;5557;51.670;7.788;2024-03-25T11:19:30;8.73;;;2.60;;
11008;SDS011;5557;51.670;7.788;2024-03-25T11:22:06;8.00;;;2.70;;
11008;SDS011;5557;51.670;7.788;2024-03-25T11:24:35;8.10;;;2.50;;
11008;SDS011;5557;51.670;7.788;2024-03-25T11:27:05;13.00;;;2.27;;
11008;SDS011;5557;51.670;7.788;2024-03-25T11:29:33;6.87;;;2.30;;
11008;SDS011;5557;51.670;7.788;2024-03-25T11:32:00;7.13;;;2.03;;
11008;SDS011;5557;51.670;7.788;2024-03-25T11:34:29;7.33;;;2.87;;
11008;SDS011;5557;51.670;7.788;2024-03-25T11:40:02;4.83;;;2.30;;
11008;SDS011;5557;51.670;7.788;2024-03-25T11:42:29;7.30;;;2.30;;
11008;SDS011;5557;51.670;7.788;2024-03-25T11:44:55;5.30;;;2.07;;
11008;SDS011;5557;51.670;7.788;2024-03-25T11:47:21;9.93;;;2.73;;
11008;SDS011;5557;51.670;7.788;2024-03-25T11:49:49;6.07;;;1.80;;
11008;SDS011;5557;51.670;7.788;2024-03-25T11:52:14;7.47;;;2.67;;
11008;SDS011;5557;51.670;7.788;2024-03-25T11:54:41;4.50;;;2.20;;
11008;SDS011;5557;51.670;7.788;2024-03-25T11:57:07;4.03;;;1.60;;
11008;SDS011;5557;51.670;7.788;2024-03-25T11:59:34;8.33;;;2.07;;
11008;SDS011;5557;51.670;7.788;2024-03-25T12:01:59;6.07;;;1.83;;
11008;SDS011;5557;51.670;7.788;2024-03-25T12:04:27;6.20;;;2.03;;
11008;SDS011;5557;51.670;7.788;2024-03-25T12:06:56;7.40;;;2.23;;
11008;SDS011;5557;51.670;7.788;2024-03-25T12:09:22;6.80;;;1.90;;
11008;SDS011;5557;51.670;7.788;2024-03-25T12:12:07;2.83;;;1.70;;
11008;SDS011;5557;51.670;7.788;2024-03-25T12:14:33;4.67;;;2.03;;
11008;SDS011;5557;51.670;7.788;2024-03-25T12:16:59;5.13;;;1.53;;
11008;SDS011;5557;51.670;7.788;2024-03-25T12:19:26;5.80;;;1.67;;
11008;SDS011;5557;51.670;7.788;2024-03-25T12:22:01;6.67;;;2.10;;
11008;SDS011;5557;51.670;7.788;2024-03-25T12:24:29;2.63;;;1.50;;
11008;SDS011;5557;51.670;7.788;2024-03-25T12:26:54;9.10;;;1.80;;
11008;SDS011;5557;51.670;7.788;2024-03-25T12:29:21;7.33;;;1.93;;
11008;SDS011;5557;51.670;7.788;2024-03-25T12:31:54;6.40;;;2.13;;
11008;SDS011;5557;51.670;7.788;2024-03-25T12:34:22;5.23;;;2.37;;
11008;SDS011;5557;51.670;7.788;2024-03-25T12:36:50;2.90;;;2.00;;
11008;SDS011;5557;51.670;7.788;2024-03-25T12:39:19;10.47;;;2.53;;
11008;SDS011;5557;51.670;7.788;2024-03-25T12:41:45;5.23;;;2.10;;
11008;SDS011;5557;51.670;7.788;2024-03-25T12:44:12;6.93;;;2.00;;
11008;SDS011;5557;51.670;7.788;2024-03-25T12:46:38;4.93;;;1.87;;
11008;SDS011;5557;51.670;7.788;2024-03-25T12:49:05;7.77;;;1.90;;
11008;SDS011;5557;51.670;7.788;2024-03-25T12:51:31;5.70;;;1.90;;
11008;SDS011;5557;51.670;7.788;2024-03-25T12:53:57;5.70;;;2.07;;
11008;SDS011;5557;51.670;7.788;2024-03-25T12:56:24;13.57;;;1.90;;
11008;SDS011;5557;51.670;7.788;2024-03-25T12:58:50;7.73;;;2.50;;
11008;SDS011;5557;51.670;7.788;2024-03-25T13:01:17;4.80;;;2.03;;
11008;SDS011;5557;51.670;7.788;2024-03-25T13:03:43;11.17;;;2.10;;
11008;SDS011;5557;51.670;7.788;2024-03-25T13:06:09;12.30;;;2.53;;
11008;SDS011;5557;51.670;7.788;2024-03-25T13:08:35;8.53;;;2.80;;
11008;SDS011;5557;51.670;7.788;2024-03-25T13:11:02;4.90;;;2.40;;
11008;SDS011;5557;51.670;7.788;2024-03-25T13:13:29;5.57;;;2.13;;
11008;SDS011;5557;51.670;7.788;2024-03-25T13:15:55;11.07;;;1.80;;
11008;SDS011;5557;51.670;7.788;2024-03-25T13:18:22;8.03;;;1.80;;
11008;SDS011;5557;51.670;7.788;2024-03-25T13:20:48;5.27;;;1.90;;
11008;SDS011;5557;51.670;7.788;2024-03-25T13:23:14;8.20;;;2.00;;
11008;SDS011;5557;51.670;7.788;2024-03-25T13:25:41;4.80;;;1.63;;
11008;SDS011;5557;51.670;7.788;2024-03-25T13:28:07;10.57;;;2.00;;
11008;SDS011;5557;51.670;7.788;2024-03-25T13:30:45;6.17;;;1.80;;
11008;SDS011;5557;51.670;7.788;2024-03-25T13:33:15;7.03;;;2.00;;
11008;SDS011;5557;51.670;7.788;2024-03-25T13:35:41;6.73;;;2.20;;
11008;SDS011;5557;51.670;7.788;2024-03-25T13:38:06;8.93;;;2.07;;
11008;SDS011;5557;51.670;7.788;2024-03-25T13:40:32;6.20;;;2.20;;
11008;SDS011;5557;51.670;7.788;2024-03-25T13:42:59;5.17;;;2.30;;
11008;SDS011;5557;51.670;7.788;2024-03-25T13:45:25;5.60;;;2.13;;
11008;SDS011;5557;51.670;7.788;2024-03-25T13:47:52;9.93;;;2.27;;
11008;SDS011;5557;51.670;7.788;2024-03-25T13:50:18;5.00;;;1.70;;
11008;SDS011;5557;51.670;7.788;2024-03-25T13:52:47;8.30;;;2.80;;
11008;SDS011;5557;51.670;7.788;2024-03-25T13:58:57;9.80;;;2.20;;
11008;SDS011;5557;51.670;7.788;2024-03-25T14:01:23;9.90;;;3.13;;
11008;SDS011;5557;51.670;7.788;2024-03-25T14:03:50;8.60;;;2.00;;
11008;SDS011;5557;51.670;7.788;2024-03-25T14:06:16;7.83;;;2.20;;
11008;SDS011;5557;51.670;7.788;2024-03-25T14:08:42;16.30;;;2.50;;
11008;SDS011;5557;51.670;7.788;2024-03-25T14:11:09;6.40;;;2.20;;
11008;SDS011;5557;51.670;7.788;2024-03-25T14:13:35;7.43;;;2.20;;
11008;SDS011;5557;51.670;7.788;2024-03-25T14:16:01;4.77;;;2.20;;
11008;SDS011;5557;51.670;7.788;2024-03-25T14:18:27;6.43;;;1.70;;
11008;SDS011;5557;51.670;7.788;2024-03-25T14:20:53;17.33;;;2.27;;
11008;SDS011;5557;51.670;7.788;2024-03-25T14:23:20;7.50;;;2.40;;
11008;SDS011;5557;51.670;7.788;2024-03-25T14:25:45;15.57;;;4.67;;
11008;SDS011;5557;51.670;7.788;2024-03-25T14:28:13;11.67;;;2.03;;
11008;SDS011;5557;51.670;7.788;2024-03-25T14:30:39;11.57;;;2.00;;
11008;SDS011;5557;51.670;7.788;2024-03-25T14:33:05;5.07;;;2.57;;
11008;SDS011;5557;51.670;7.788;2024-03-25T14:35:32;10.13;;;2.07;;
11008;SDS011;5557;51.670;7.788;2024-03-25T14:37:58;9.53;;;2.20;;
11008;SDS011;5557;51.670;7.788;2024-03-25T14:40:24;3.10;;;1.80;;
11008;SDS011;5557;51.670;7.788;2024-03-25T14:42:50;7.23;;;1.70;;
11008;SDS011;5557;51.670;7.788;2024-03-25T14:45:16;4.90;;;2.00;;
11008;SDS011;5557;51.670;7.788;2024-03-25T14:47:42;5.63;;;1.67;;
11008;SDS011;5557;51.670;7.788;2024-03-25T14:50:08;3.83;;;1.77;;
11008;SDS011;5557;51.670;7.788;2024-03-25T14:52:35;5.40;;;1.70;;
11008;SDS011;5557;51.670;7.788;2024-03-25T14:55:01;2.20;;;1.60;;